Time;durP1;ratioP1;P1;durP2;ratioP2;P2;SDS_P1;SDS_P2;PMS_P1;PMS_P2;Temp;Humidity;BMP_temperature;BMP_pressure;BME280_temperature;BME280_humidity;BME280_pressure;Samples;Min_cycle;Max_cycle;Signal;HPM_P1;HPM_P2
2021/08/03 00:05:20;;;;;;;8.55;3.75;;;;;;;13.82;89.32;98975.18;4115103;84;21042;-80
2021/08/03 00:11:23;;;;;;;4.67;3.40;;;;;;;13.65;89.03;98966.38;4120682;84;21023;-80
2021/08/03 00:17:26;;;;;;;3.72;2.70;;;;;;;13.50;88.87;98967.58;4121767;84;21087;-81
2021/08/03 00:23:27;;;;;;;4.55;3.27;;;;;;;13.37;88.79;98959.53;4119717;84;21014;-81
2021/08/03 00:29:29;;;;;;;4.97;3.33;;;;;;;13.31;89.22;98960.50;4121520;84;21019;-80
2021/08/03 00:35:30;;;;;;;7.25;3.50;;;;;;;13.25;88.86;98957.95;4115306;84;21113;-81
2021/08/03 00:41:46;;;;;;;4.58;2.90;;;;;;;13.19;89.10;98977.39;4113789;84;21098;-80
2021/08/03 00:47:48;;;;;;;4.80;3.60;;;;;;;13.05;88.93;98976.02;4109864;84;21526;-81
2021/08/03 00:53:50;;;;;;;7.92;3.33;;;;;;;12.84;88.94;98973.23;4113205;84;21062;-81
2021/08/03 00:59:52;;;;;;;5.92;3.40;;;;;;;12.77;89.30;98971.03;4119443;84;21006;-80
2021/08/03 01:06:18;;;;;;;5.95;3.85;;;;;;;12.67;89.21;98967.08;4118266;84;21063;-81
2021/08/03 01:12:47;;;;;;;6.70;3.50;;;;;;;12.45;89.19;98969.57;4114416;84;21042;-83
2021/08/03 01:19:13;;;;;;;5.55;4.15;;;;;;;12.43;89.63;98964.47;4114688;84;21093;-80
2021/08/03 01:25:56;;;;;;;6.08;4.25;;;;;;;12.52;89.75;98958.05;4062087;86;21101;-82
2021/08/03 01:32:05;;;;;;;6.37;3.40;;;;;;;12.50;89.80;98959.59;4114406;84;21074;-81
2021/08/03 01:38:07;;;;;;;7.33;4.00;;;;;;;12.40;89.75;98961.12;4117853;84;21029;-82
2021/08/03 01:44:12;;;;;;;8.08;3.98;;;;;;;12.47;90.18;98956.25;4111610;84;21062;-81
2021/08/03 01:50:14;;;;;;;5.37;3.62;;;;;;;12.42;89.98;98957.99;4139460;84;21076;-82
2021/08/03 01:56:19;;;;;;;6.47;3.35;;;;;;;12.34;90.06;98959.94;4111189;84;22190;-81
2021/08/03 02:02:23;;;;;;;4.60;3.17;;;;;;;12.21;90.36;98968.91;4119723;84;21598;-81
2021/08/03 02:08:27;;;;;;;6.40;3.27;;;;;;;12.22;90.54;98967.16;4114719;84;21100;-81
2021/08/03 02:14:31;;;;;;;4.35;3.08;;;;;;;12.41;91.46;98967.41;4110554;84;21101;-81
2021/08/03 02:20:38;;;;;;;5.10;2.73;;;;;;;12.46;90.74;98974.70;4113621;84;21054;-81
2021/08/03 02:26:41;;;;;;;9.10;3.40;;;;;;;12.40;91.31;98971.34;4114477;84;21531;-81
2021/08/03 02:32:51;;;;;;;6.08;3.20;;;;;;;12.47;91.18;98976.84;4112528;84;21059;-83
2021/08/03 02:38:58;;;;;;;8.55;3.22;;;;;;;12.38;91.07;98982.71;4113796;84;21114;-81
2021/08/03 02:45:02;;;;;;;;;;;;;;;12.12;91.17;98981.60;4119713;84;21070;-81
2021/08/03 02:51:05;;;;;;;7.50;3.60;;;;;;;12.15;91.06;98980.83;4121947;84;20245;-80
2021/08/03 02:57:10;;;;;;;7.22;3.33;;;;;;;12.14;91.22;98985.33;4125488;84;21586;-80
2021/08/03 03:03:20;;;;;;;9.03;3.50;;;;;;;11.99;90.98;98985.07;4120322;84;21047;-80
2021/08/03 03:09:25;;;;;;;5.33;3.27;;;;;;;12.15;92.27;98986.92;4110923;84;21089;-81
2021/08/03 03:15:29;;;;;;;6.47;3.15;;;;;;;12.23;91.18;98994.02;4117520;85;21046;-81
2021/08/03 03:21:31;;;;;;;5.35;3.10;;;;;;;11.81;91.00;99000.05;4115231;84;21511;-81
2021/08/03 03:27:34;;;;;;;3.83;3.12;;;;;;;11.81;91.55;99005.53;4121028;84;25883;-81
2021/08/03 03:33:39;;;;;;;5.03;3.22;;;;;;;11.89;91.68;99017.33;4126233;84;21091;-81
2021/08/03 03:39:41;;;;;;;5.53;2.92;;;;;;;11.89;91.55;99015.39;4129115;84;21061;-81
2021/08/03 03:45:48;;;;;;;9.23;3.30;;;;;;;11.99;92.37;99021.53;4134496;84;21011;-81
2021/08/03 03:51:50;;;;;;;5.17;3.10;;;;;;;11.98;91.87;99023.29;4078907;85;21074;-81
2021/08/03 03:57:53;;;;;;;5.15;3.05;;;;;;;12.07;92.52;99031.38;4112079;85;21047;-82
2021/08/03 04:04:00;;;;;;;7.08;3.98;;;;;;;12.26;92.80;99028.92;4111611;85;21055;-82
2021/08/03 04:10:05;;;;;;;6.17;3.50;;;;;;;12.18;91.80;99047.89;4078320;85;21042;-81
2021/08/03 04:16:08;;;;;;;7.58;4.30;;;;;;;12.31;92.65;99040.89;4065857;85;21143;-80
2021/08/03 04:22:10;;;;;;;4.55;3.37;;;;;;;12.45;92.77;99047.23;4062484;85;21059;-81
2021/08/03 04:28:12;;;;;;;4.70;3.27;;;;;;;12.58;92.80;99042.19;4069342;85;21057;-81
2021/08/03 04:34:13;;;;;;;9.85;3.05;;;;;;;12.69;92.77;99041.64;4062766;85;21818;-83
2021/08/03 04:40:17;;;;;;;11.28;3.30;;;;;;;12.76;92.70;99034.02;4069239;85;21573;-80
2021/08/03 04:46:19;;;;;;;5.33;2.90;;;;;;;12.83;92.87;99040.89;4060403;85;21563;-81
2021/08/03 04:52:20;;;;;;;6.67;2.92;;;;;;;12.96;92.88;99048.98;4087403;85;21067;-81
2021/08/03 04:58:21;;;;;;;4.83;3.83;;;;;;;13.03;93.04;99044.31;4117390;84;21057;-81
2021/08/03 05:04:22;;;;;;;7.45;3.20;;;;;;;13.19;93.22;99039.82;4129319;83;21546;-81
2021/08/03 05:10:24;;;;;;;9.48;2.98;;;;;;;13.33;93.11;99042.58;4148508;84;21154;-81
2021/08/03 05:16:29;;;;;;;3.42;2.77;;;;;;;13.41;93.31;99040.83;4117276;84;21582;-81
2021/08/03 05:22:30;;;;;;;3.45;2.80;;;;;;;13.57;93.29;99043.98;4120043;84;21083;-81
2021/08/03 05:28:31;;;;;;;6.28;3.20;;;;;;;13.63;93.26;99048.49;4113514;84;21102;-81
2021/08/03 05:34:32;;;;;;;3.33;2.67;;;;;;;13.75;93.48;99046.73;4085559;85;21062;-81
2021/08/03 05:40:34;;;;;;;7.78;3.12;;;;;;;13.93;93.47;99046.91;4011173;86;21116;-81
2021/08/03 05:46:35;;;;;;;3.02;2.60;;;;;;;14.15;93.54;99050.39;4130661;84;21080;-81
2021/08/03 05:52:36;;;;;;;4.08;2.65;;;;;;;14.37;93.45;99045.06;4124675;83;21496;-81
2021/08/03 05:58:37;;;;;;;11.70;2.98;;;;;;;14.60;93.49;99048.70;4094166;84;36970;-81
2021/08/03 06:04:38;;;;;;;3.05;2.60;;;;;;;14.82;93.64;99050.97;4095835;84;21138;-81
2021/08/03 06:10:43;;;;;;;3.58;2.02;;;;;;;15.12;93.36;99050.40;4110012;84;21082;-81
2021/08/03 06:16:51;;;;;;;2.58;2.10;;;;;;;15.35;92.87;99054.19;4073913;84;21082;-82
2021/08/03 06:22:54;;;;;;;5.33;2.30;;;;;;;15.68;92.28;99054.77;3963827;88;21477;-81
2021/08/03 06:28:55;;;;;;;3.25;2.27;;;;;;;15.96;92.15;99060.03;3965472;87;21544;-81
2021/08/03 06:34:57;;;;;;;3.33;2.30;;;;;;;16.25;91.63;99055.78;4090315;85;21113;-82
2021/08/03 06:41:26;;;;;;;4.78;3.05;;;;;;;16.55;91.40;99063.55;4092742;85;21509;-81
2021/08/03 06:47:45;;;;;;;11.12;3.77;;;;;;;16.85;90.60;99055.90;4100197;84;21086;-82
2021/08/03 06:53:48;;;;;;;6.28;3.58;;;;;;;17.04;90.48;99051.86;4089181;84;21014;-82
2021/08/03 06:59:56;;;;;;;8.80;3.30;;;;;;;17.23;90.35;99058.12;4086898;85;21581;-82
2021/08/03 07:05:58;;;;;;;5.80;2.90;;;;;;;17.57;89.94;99057.25;4072320;85;21014;-79
2021/08/03 07:11:59;;;;;;;4.50;2.65;;;;;;;17.83;89.42;99058.58;4090266;84;21048;-80
2021/08/03 07:18:02;;;;;;;7.65;2.47;;;;;;;17.97;88.77;99060.31;4116255;84;21039;-80
2021/08/03 07:24:05;;;;;;;2.52;1.92;;;;;;;18.15;88.14;99058.79;4100143;85;21122;-79
2021/08/03 07:30:09;;;;;;;2.72;1.90;;;;;;;18.37;88.10;99054.42;4095095;85;21381;-80
2021/08/03 07:36:15;;;;;;;6.60;2.10;;;;;;;18.71;87.21;99054.95;4095668;85;21142;-80
2021/08/03 07:42:17;;;;;;;3.95;2.25;;;;;;;19.16;86.03;99049.63;4100475;85;21059;-82
2021/08/03 07:48:18;;;;;;;2.90;1.72;;;;;;;19.52;85.10;99057.34;4104287;84;21583;-82
2021/08/03 07:54:20;;;;;;;2.67;1.70;;;;;;;19.98;84.37;99052.05;4098440;84;21039;-82
2021/08/03 08:00:21;;;;;;;4.58;1.75;;;;;;;20.56;84.10;99062.02;4093193;85;21079;-82
2021/08/03 08:06:23;;;;;;;2.72;1.77;;;;;;;21.22;82.44;99065.47;4090667;85;21586;-82
2021/08/03 08:12:25;;;;;;;4.85;2.08;;;;;;;21.59;80.43;99062.70;4099561;85;21356;-82
2021/08/03 08:18:26;;;;;;;4.95;1.98;;;;;;;21.69;79.46;99049.63;4106339;85;21413;-82
2021/08/03 08:24:27;;;;;;;7.00;2.20;;;;;;;21.82;78.70;99059.38;4103231;85;21647;-83
2021/08/03 08:30:28;;;;;;;3.47;2.00;;;;;;;21.81;76.97;99060.02;4108010;84;21007;-83
2021/08/03 08:36:30;;;;;;;2.72;2.00;;;;;;;21.60;76.74;99054.49;4090614;85;22302;-82
2021/08/03 08:42:33;;;;;;;6.17;2.05;;;;;;;21.69;76.18;99056.59;4099270;85;21443;-82
2021/08/03 08:48:37;;;;;;;2.30;2.10;;;;;;;21.74;75.59;99053.24;4095485;85;21075;-81
2021/08/03 08:54:39;;;;;;;3.58;2.62;;;;;;;21.80;74.84;99050.72;4101783;84;21666;-82
2021/08/03 09:00:40;;;;;;;3.33;2.45;;;;;;;21.76;74.51;99051.42;4096209;85;21062;-84
2021/08/03 09:06:41;;;;;;;3.70;1.90;;;;;;;21.81;74.24;99043.30;4091854;84;21051;-82
2021/08/03 09:12:42;;;;;;;2.95;1.92;;;;;;;21.95;74.27;99040.03;4097478;85;21875;-83
2021/08/03 09:18:45;;;;;;;4.30;1.90;;;;;;;22.45;73.26;99041.86;4094528;84;21046;-83
2021/08/03 09:25:09;;;;;;;3.85;2.35;;;;;;;22.87;73.26;99029.16;4098440;85;21070;-82
2021/08/03 09:31:20;;;;;;;2.37;1.80;;;;;;;23.04;71.60;99020.72;4098022;85;21032;-82
2021/08/03 09:37:27;;;;;;;2.90;2.15;;;;;;;23.60;70.54;99013.53;4112430;85;21046;-83
2021/08/03 09:43:28;;;;;;;5.12;1.85;;;;;;;24.07;69.37;99019.56;4096324;85;21819;-83
2021/08/03 09:49:39;;;;;;;2.22;1.80;;;;;;;23.90;68.99;99022.46;4104357;84;21536;-83
2021/08/03 09:55:46;;;;;;;3.33;2.10;;;;;;;23.59;69.11;99017.55;4098885;85;21098;-82
2021/08/03 10:01:50;;;;;;;2.72;1.60;;;;;;;23.32;69.02;99014.05;4099662;85;21154;-84
2021/08/03 10:07:50;;;;;;;2.62;1.62;;;;;;;23.26;67.95;99008.91;4100288;85;21051;-83
2021/08/03 10:13:53;;;;;;;3.00;1.57;;;;;;;24.11;68.16;99005.58;4099462;85;21583;-82
2021/08/03 10:19:59;;;;;;;2.42;1.60;;;;;;;25.06;67.25;99004.05;4100154;85;21105;-82
2021/08/03 10:26:00;;;;;;;;;;;;;;;25.57;66.30;99004.03;4108887;84;21111;-83
2021/08/03 10:32:03;;;;;;;1.95;1.22;;;;;;;25.74;62.25;99012.97;4096410;85;20488;-83
2021/08/03 10:38:12;;;;;;;2.37;1.80;;;;;;;25.75;63.49;98996.90;4090007;85;21082;-82
2021/08/03 10:44:38;;;;;;;6.00;2.65;;;;;;;25.61;62.90;98989.98;4093366;85;21052;-84
2021/08/03 10:50:39;;;;;;;2.50;1.60;;;;;;;25.60;62.30;98984.23;4103155;85;21090;-82
2021/08/03 10:56:58;;;;;;;2.58;1.70;;;;;;;25.67;61.84;98979.66;4094766;85;21015;-82
2021/08/03 11:02:59;;;;;;;1.87;1.60;;;;;;;25.30;61.77;98981.09;4096056;84;21000;-82
2021/08/03 11:09:01;;;;;;;3.40;1.70;;;;;;;24.91;61.65;98975.18;4102762;85;21087;-82
2021/08/03 11:15:27;;;;;;;2.58;1.37;;;;;;;24.61;61.26;98974.14;4097626;85;21106;-83
2021/08/03 11:21:33;;;;;;;3.47;1.67;;;;;;;25.46;61.37;98965.33;4095589;85;21122;-83
2021/08/03 11:27:34;;;;;;;;;;;;;;;26.39;60.31;98956.55;4086942;85;21075;-83
2021/08/03 11:33:35;;;;;;;2.27;1.62;;;;;;;26.25;57.88;98951.70;4100569;85;20189;-83
2021/08/03 11:39:42;;;;;;;4.75;1.40;;;;;;;25.78;58.52;98948.28;4104281;85;21011;-82
2021/08/03 11:45:43;;;;;;;2.33;1.20;;;;;;;25.64;59.04;98935.77;4080812;85;21579;-82
2021/08/03 11:51:46;;;;;;;1.55;1.25;;;;;;;25.44;58.90;98927.80;4110383;84;21095;-83
2021/08/03 11:57:50;;;;;;;3.08;1.57;;;;;;;25.67;58.71;98934.03;4091396;85;21098;-82
2021/08/03 12:03:52;;;;;;;2.30;1.87;;;;;;;25.59;58.07;98930.06;4092723;85;21121;-82
2021/08/03 12:09:53;;;;;;;2.75;1.35;;;;;;;25.21;58.16;98929.31;4092517;85;21035;-83
2021/08/03 12:15:57;;;;;;;1.72;1.30;;;;;;;25.24;58.00;98918.56;4091771;85;21020;-83
2021/08/03 12:21:59;;;;;;;4.50;1.50;;;;;;;25.24;58.16;98905.95;4102506;85;21046;-82
2021/08/03 12:28:00;;;;;;;2.58;1.30;;;;;;;24.93;57.17;98896.31;4092154;85;21115;-83
2021/08/03 12:34:16;;;;;;;2.60;1.35;;;;;;;24.84;57.27;98906.16;4089785;84;21121;-82
2021/08/03 12:40:32;;;;;;;;;;;;;;;24.80;57.07;98912.53;4011639;86;21069;-83
2021/08/03 12:46:37;;;;;;;3.55;2.00;;;;;;;24.34;56.64;98907.64;3996802;87;20203;-83
2021/08/03 12:52:59;;;;;;;3.08;1.40;;;;;;;23.90;56.78;98902.25;3970321;87;21032;-82
2021/08/03 12:59:00;;;;;;;2.55;1.05;;;;;;;23.88;56.50;98884.52;4078819;85;21089;-83
2021/08/03 13:05:02;;;;;;;1.82;1.32;;;;;;;23.56;57.24;98863.41;4114140;84;21004;-82
2021/08/03 13:11:04;;;;;;;1.90;1.27;;;;;;;23.56;57.24;98863.41;4097868;85;21594;-82
2021/08/03 13:17:06;;;;;;;1.77;1.20;;;;;;;23.82;56.24;98878.64;4097556;85;21004;-82
2021/08/03 13:23:07;;;;;;;2.35;1.37;;;;;;;23.77;57.25;98877.25;4099376;84;21090;-83
2021/08/03 13:29:08;;;;;;;4.10;1.32;;;;;;;23.60;57.34;98867.59;4022697;86;21141;-83
2021/08/03 13:35:10;;;;;;;2.33;1.20;;;;;;;23.51;57.10;98849.44;4093277;84;21027;-83
2021/08/03 13:41:11;;;;;;;1.80;1.20;;;;;;;23.70;56.13;98843.23;4091707;85;21051;-82
2021/08/03 13:47:15;;;;;;;1.20;1.07;;;;;;;23.63;56.95;98828.19;4094765;85;21032;-82
2021/08/03 13:53:17;;;;;;;1.67;1.10;;;;;;;23.54;56.95;98824.76;4096664;85;21603;-83
2021/08/03 13:59:18;;;;;;;2.00;1.07;;;;;;;23.47;56.58;98825.08;4101373;84;21052;-82
2021/08/03 14:05:19;;;;;;;2.10;1.10;;;;;;;23.46;56.60;98817.17;4102389;85;21071;-83
2021/08/03 14:11:21;;;;;;;2.62;1.17;;;;;;;23.45;56.05;98816.38;4093799;85;21028;-82
2021/08/03 14:17:22;;;;;;;4.03;1.20;;;;;;;23.47;55.57;98806.92;4099841;85;21074;-82
2021/08/03 14:23:24;;;;;;;2.37;1.50;;;;;;;23.46;56.64;98796.97;4090763;85;21077;-82
2021/08/03 14:29:25;;;;;;;2.37;1.40;;;;;;;23.50;56.79;98791.23;4102197;85;21031;-83
2021/08/03 14:35:26;;;;;;;1.92;1.35;;;;;;;23.54;56.32;98790.48;4104737;84;21071;-83
2021/08/03 14:41:28;;;;;;;2.08;1.35;;;;;;;23.55;56.27;98788.61;4094869;84;21059;-83
2021/08/03 14:47:29;;;;;;;2.10;1.42;;;;;;;23.57;56.54;98783.31;4097895;84;21373;-83
2021/08/03 14:53:30;;;;;;;2.37;1.30;;;;;;;23.46;56.84;98791.39;4097953;84;21004;-83
2021/08/03 14:59:32;;;;;;;2.08;1.05;;;;;;;23.35;56.16;98779.14;4100197;85;22134;-83
2021/08/03 15:05:33;;;;;;;1.60;1.27;;;;;;;23.26;56.32;98775.72;4098411;84;21047;-82
2021/08/03 15:11:34;;;;;;;1.62;1.27;;;;;;;23.21;55.75;98781.88;4089868;85;21048;-82
2021/08/03 15:17:35;;;;;;;2.85;1.27;;;;;;;23.14;55.95;98778.02;4096689;85;21076;-84
2021/08/03 15:23:37;;;;;;;3.45;1.22;;;;;;;23.10;55.98;98775.37;4104670;85;21034;-83
2021/08/03 15:29:39;;;;;;;1.40;1.10;;;;;;;23.12;56.18;98777.70;4097009;85;21031;-83
2021/08/03 15:35:43;;;;;;;1.77;0.90;;;;;;;23.07;56.05;98765.74;4092613;85;21135;-82
2021/08/03 15:41:47;;;;;;;2.65;1.00;;;;;;;23.03;56.16;98766.53;4097681;85;21111;-83
2021/08/03 15:47:50;;;;;;;3.58;1.02;;;;;;;22.94;55.99;98758.91;4095700;85;21023;-84
2021/08/03 15:53:51;;;;;;;2.17;0.98;;;;;;;22.86;56.19;98760.47;4091674;85;21055;-82
2021/08/03 15:59:52;;;;;;;1.75;1.10;;;;;;;22.80;55.90;98765.08;4104418;84;21537;-83
2021/08/03 16:05:54;;;;;;;2.25;1.27;;;;;;;22.80;55.62;98770.66;4097995;84;21040;-85
2021/08/03 16:11:55;;;;;;;3.00;1.20;;;;;;;22.72;55.49;98771.44;4099869;84;21079;-83
2021/08/03 16:18:06;;;;;;;3.17;1.35;;;;;;;22.63;55.31;98777.75;4103372;85;21465;-82
2021/08/03 16:24:08;;;;;;;2.60;1.37;;;;;;;22.54;55.55;98779.13;4090831;85;21130;-82
2021/08/03 16:30:10;;;;;;;3.35;1.00;;;;;;;22.46;55.62;98775.04;4097818;85;21126;-82
2021/08/03 16:36:17;;;;;;;1.50;1.07;;;;;;;22.42;55.47;98766.66;4098119;85;21713;-82
2021/08/03 16:42:20;;;;;;;1.50;1.00;;;;;;;22.38;55.85;98765.40;4100698;85;21150;-82
2021/08/03 16:48:25;;;;;;;2.12;1.22;;;;;;;22.31;55.90;98755.94;4105771;85;21082;-82
2021/08/03 16:54:29;;;;;;;4.92;1.27;;;;;;;22.16;56.53;98748.59;4101942;85;21063;-82
2021/08/03 17:00:31;;;;;;;1.67;1.30;;;;;;;22.06;56.57;98748.38;4096518;85;21016;-82
2021/08/03 17:07:06;;;;;;;2.10;1.50;;;;;;;21.93;56.49;98744.29;4098403;85;21651;-83
2021/08/03 17:13:39;;;;;;;1.37;1.20;;;;;;;21.71;56.58;98762.41;4098102;85;21086;-82
2021/08/03 17:19:42;;;;;;;3.60;1.42;;;;;;;21.58;56.96;98765.87;4100129;84;21077;-81
2021/08/03 17:25:47;;;;;;;2.02;1.50;;;;;;;21.51;57.32;98760.58;4099061;84;21031;-82
2021/08/03 17:31:50;;;;;;;6.22;1.82;;;;;;;21.41;57.78;98757.55;4084425;84;21111;-84
2021/08/03 17:37:51;;;;;;;4.05;2.15;;;;;;;21.25;58.63;98761.90;4097430;85;21567;-83
2021/08/03 17:43:54;;;;;;;4.67;3.20;;;;;;;21.13;59.31;98771.08;4102914;84;21539;-83
2021/08/03 17:49:58;;;;;;;5.50;3.60;;;;;;;21.09;59.66;98770.44;4096406;85;21421;-83
2021/08/03 17:56:02;;;;;;;13.22;3.70;;;;;;;21.03;59.37;98772.22;4107611;85;21432;-83
2021/08/03 18:02:04;;;;;;;2.75;1.92;;;;;;;20.90;59.57;98765.90;4093968;84;21013;-83
2021/08/03 18:08:06;;;;;;;2.33;1.60;;;;;;;20.77;59.64;98783.22;4014853;86;21140;-83
2021/08/03 18:14:09;;;;;;;3.90;2.00;;;;;;;20.69;59.78;98792.27;4101848;85;21566;-83
2021/08/03 18:20:13;;;;;;;2.77;2.05;;;;;;;20.56;60.12;98789.50;4106033;85;21615;-85
2021/08/03 18:26:31;;;;;;;9.08;4.35;;;;;;;20.43;60.62;98790.70;4103312;84;21623;-82
2021/08/03 18:32:55;;;;;;;5.33;3.25;;;;;;;20.25;61.13;98800.22;4101891;85;21953;-83
2021/08/03 18:38:59;;;;;;;4.95;2.70;;;;;;;20.06;61.45;98833.28;4070995;84;21080;-84
2021/08/03 18:45:02;;;;;;;5.08;2.70;;;;;;;19.83;65.99;98840.52;4095868;84;21059;-85
2021/08/03 18:51:04;;;;;;;5.78;2.60;;;;;;;19.20;71.53;98827.57;4117677;84;21029;-83
2021/08/03 18:57:06;;;;;;;2.98;2.10;;;;;;;18.64;72.23;98838.85;4089074;84;21052;-82
2021/08/03 19:03:09;;;;;;;4.08;2.17;;;;;;;18.47;74.56;98844.80;4097814;84;20995;-83
2021/08/03 19:09:14;;;;;;;3.60;2.70;;;;;;;18.34;74.50;98850.20;4095777;84;21043;-82
2021/08/03 19:15:16;;;;;;;5.97;2.30;;;;;;;18.26;74.11;98866.80;4094971;85;21136;-83
2021/08/03 19:21:19;;;;;;;2.90;2.05;;;;;;;18.19;75.34;98861.44;4111751;84;22266;-83
2021/08/03 19:27:22;;;;;;;6.08;2.05;;;;;;;18.04;75.18;98863.55;4097073;84;21081;-85
2021/08/03 19:33:24;;;;;;;4.20;2.58;;;;;;;17.95;76.60;98857.19;4103815;84;21323;-82
2021/08/03 19:39:26;;;;;;;9.10;2.65;;;;;;;17.91;77.58;98851.55;4109990;84;21063;-82
2021/08/03 19:45:28;;;;;;;2.92;2.00;;;;;;;17.78;77.16;98881.07;3960765;88;21092;-82
2021/08/03 19:51:32;;;;;;;3.02;1.50;;;;;;;17.81;77.17;98887.93;4103141;84;21047;-84
2021/08/03 19:57:36;;;;;;;4.03;2.30;;;;;;;17.80;77.44;98872.53;4116916;84;20995;-81
2021/08/03 20:03:42;;;;;;;2.55;1.95;;;;;;;17.76;77.19;98877.97;3988496;82;9999589;-81
2021/08/03 20:09:43;;;;;;;1.93;1.60;;;;;;;17.60;77.51;98886.97;4118249;84;21017;-81
2021/08/03 20:15:46;;;;;;;4.15;2.22;;;;;;;17.58;78.22;98892.73;4104532;84;21131;-81
2021/08/03 20:21:49;;;;;;;3.95;2.08;;;;;;;17.56;78.54;98913.91;4110382;84;22198;-81
2021/08/03 20:27:58;;;;;;;4.08;2.50;;;;;;;17.38;79.11;98929.24;4104747;85;21055;-81
2021/08/03 20:34:00;;;;;;;7.22;4.60;;;;;;;17.31;79.38;98890.02;4100790;85;20971;-81
2021/08/03 20:46:07;;;;;;;5.35;3.12;;;;;;;17.12;81.15;98883.83;4104117;85;20984;-82
2021/08/03 20:52:09;;;;;;;3.58;2.62;;;;;;;17.06;81.49;98883.54;4096646;85;21094;-81
2021/08/03 20:58:11;;;;;;;7.05;3.12;;;;;;;17.07;81.46;98889.24;4102066;85;21011;-81
2021/08/03 21:04:17;;;;;;;10.27;2.33;;;;;;;17.16;81.79;98911.61;3977856;84;9999719;-81
2021/08/03 21:10:18;;;;;;;5.55;2.35;;;;;;;17.12;81.89;98903.98;4103674;84;21397;-80
2021/08/03 21:16:20;;;;;;;3.33;2.40;;;;;;;17.09;82.01;98902.05;4096519;85;21555;-81
2021/08/03 21:22:39;;;;;;;3.80;2.20;;;;;;;16.86;82.30;98899.28;4104164;84;21063;-81
2021/08/03 21:28:59;;;;;;;4.12;2.42;;;;;;;16.93;82.86;98900.53;4103147;85;21137;-81
2021/08/03 21:35:20;;;;;;;5.72;2.80;;;;;;;16.91;82.97;98897.39;4100639;84;21024;-81
2021/08/03 21:41:40;;;;;;;4.17;2.85;;;;;;;16.95;83.16;98893.98;4105962;84;21019;-80
2021/08/03 21:48:07;;;;;;;5.05;3.22;;;;;;;16.80;83.61;98884.34;4097152;85;21066;-80
2021/08/03 21:54:27;;;;;;;5.95;3.47;;;;;;;16.72;84.22;98883.50;4097707;85;21059;-81
2021/08/03 22:00:29;;;;;;;6.22;3.33;;;;;;;16.68;84.31;98893.22;4101614;85;21157;-81
2021/08/03 22:06:30;;;;;;;5.65;4.00;;;;;;;16.48;84.72;98884.05;4097657;85;21350;-81
2021/08/03 22:12:32;;;;;;;6.00;4.03;;;;;;;16.57;85.05;98887.69;4102171;85;21151;-80
2021/08/03 22:18:33;;;;;;;4.78;3.33;;;;;;;16.49;85.23;98865.50;4102594;85;21113;-81
2021/08/03 22:24:34;;;;;;;7.28;3.25;;;;;;;16.37;85.22;98856.34;4094189;85;21584;-81
2021/08/03 22:30:35;;;;;;;3.55;2.75;;;;;;;16.24;85.52;98850.60;4099855;85;21583;-81
2021/08/03 22:36:37;;;;;;;7.35;2.60;;;;;;;16.21;85.69;98847.91;4100826;85;21033;-80
2021/08/03 22:42:38;;;;;;;6.25;2.60;;;;;;;16.22;85.95;98839.80;4104301;85;21557;-80
2021/08/03 22:48:40;;;;;;;6.15;2.75;;;;;;;16.12;85.63;98836.58;4108748;85;21039;-80
2021/08/03 22:54:41;;;;;;;3.08;2.15;;;;;;;16.06;86.08;98829.95;4108387;85;21039;-82
2021/08/03 23:00:42;;;;;;;4.40;2.70;;;;;;;16.02;86.04;98821.71;4094150;85;21391;-80
2021/08/03 23:06:43;;;;;;;3.83;2.15;;;;;;;15.99;86.05;98822.55;4106567;85;21047;-80
2021/08/03 23:12:44;;;;;;;2.98;2.02;;;;;;;15.91;86.02;98818.31;4113396;85;21040;-80
2021/08/03 23:18:46;;;;;;;3.20;1.80;;;;;;;15.84;86.53;98837.73;4099806;84;20992;-81
2021/08/03 23:24:48;;;;;;;3.83;1.92;;;;;;;15.93;86.75;98849.05;4104016;85;21101;-80
2021/08/03 23:30:49;;;;;;;3.25;2.30;;;;;;;15.99;86.85;98833.59;4089882;85;21071;-80
2021/08/03 23:36:51;;;;;;;5.53;2.10;;;;;;;16.03;86.76;98833.55;4099554;85;21115;-81
2021/08/03 23:42:52;;;;;;;3.80;2.02;;;;;;;15.86;86.60;98829.83;4092942;85;21103;-80
2021/08/03 23:48:53;;;;;;;7.17;2.20;;;;;;;15.76;87.01;98834.87;4104815;85;21044;-80
2021/08/03 23:54:55;;;;;;;2.45;1.80;;;;;;;15.81;87.39;98837.77;4098747;85;21034;-80
